Air Resources Laboratory banner image
Air Resources Laboratory web site National Oceanic and Atmospheric Administration (NOAA)

ga metar


KABY 182253Z 00000KT 10SM CLR 13/06 A3009 RMK AO2 SLP190 T01280056=
KAGS 182253Z 00000KT 10SM CLR 09/04 A3010 RMK AO2 SLP192 T00940039=
KAHN 182251Z 10005KT 10SM CLR 09/02 A3009 RMK AO2 SLP192 T00890022=
KAMG 182253Z AUTO 00000KT 10SM CLR 10/07 A3008 RMK AO2 SLP185 T01000067=
KATL 182252Z 27003KT 10SM FEW200 BKN250 14/M02 A3006 RMK AO2 SLP180 T01441017=
KAYS 182255Z AUTO 00000KT 10SM CLR 13/08 A3008 RMK AO2 T01250084=
KBQK 182255Z AUTO 07007KT 10SM CLR 08/07 A3010 RMK AO2=
KCCO 182255Z AUTO 00000KT 10SM CLR 12/01 A3007 RMK AO2 T01200006=
KCSG 182251Z 00000KT 10SM CLR 14/03 A3007 RMK AO2 SLP181 T01440028=
KDNL 182253Z AUTO 13003KT 10SM CLR 14/01 A3010 RMK AO2 SLP193 T01440011=
KDNN 182255Z AUTO 00000KT 10SM CLR 09/01 A3009 RMK AO2=
KFFC 182253Z AUTO 00000KT 10SM CLR 09/03 A3007 RMK AO2 SLP189 T00940033=
KFTY 182253Z 00000KT 10SM CLR 12/01 A3007 RMK AO2 SLP182 T01220006=
KGVL 182253Z AUTO 10003KT 10SM CLR 12/00 A3009 RMK AO2 SLP188 T01170000=
KLGC 182255Z AUTO 00000KT 10SM CLR 11/05 A3008 RMK AO2 T01060051=
KLHW 182256Z AUTO 00000KT 10SM CLR 12/07 A3009 RMK AO2 SLP193 T01170068 PNO $=
KLSF 182256Z AUTO 00000KT 10SM CLR 12/06 A3006 RMK AO2 SLP185 T01190057=
KLZU 182256Z 00000KT 10SM CLR 11/02 A3007 RMK AO2 SLP196 T01110022=
KMCN 182253Z 12003KT 10SM CLR 11/04 A3007 RMK AO2 SLP184 T01060039=
KMGE 182256Z 33002KT 10SM BKN250 11/M01 A3006 RMK AO2A SLP182 T01061008 $=
KMGR 182255Z AUTO 00000KT 10SM CLR 12/07 A3008 RMK AO2=
KOPN 182255Z AUTO 00000KT 10SM CLR 11/M01 A3009 RMK AO2=
KPDK 182253Z 00000KT 10SM CLR 11/00 A3006 RMK AO2 SLP186 T01110000=
KRMG 182253Z AUTO 00000KT 10SM CLR 11/M02 A3008 RMK AO2 SLP185 T01061017=
KRYY 182248Z 32005KT 10SM CLR 12/M01 A3008 RMK AO2 SLP908 T01221011=
KSAV 182253Z 08003KT 10SM FEW210 BKN250 12/06 A3011 RMK AO2 PRESRR SLP194
 T01170061=
KSSI 182253Z AUTO 06003KT 10SM CLR 11/07 A3009 RMK AO2 SLP190 T01060072=
KSVN 182256Z AUTO 04003KT 10SM CLR 11/06 A3007 RMK AO2 SLP186 T01140061 FZRANO
 $=
KVAD 182256Z AUTO 29003KT 10SM CLR 13/08 A3007 RMK AO2 SLP186 T01260075 $=
KVDI 182255Z AUTO 00000KT 10SM CLR 12/05 A3009 RMK AO2=
KVLD 182253Z 00000KT 10SM CLR 10/07 A3008 RMK AO2 SLP195 T01000067=
KVPC 182253Z AUTO 00000KT 10SM CLR 07/02 A3009 RMK AO2 SLP186 T00720017=
KWDR 182255Z AUTO 00000KT 10SM CLR 11/01 A3010 RMK AO1=
KWRB 182256Z 00000KT 10SM CLR 12/04 A3007 RMK AO2A SLP186 T01200035=